x

8447387 - Borden Flats Light At Fall River, Ma (bltm3) Weather Station

1:30 - Fri 22nd May 2015 All times are EDT. -4 hours from GMT.

  • Wind
    16mph, 20mph gusts
  • Ar Temp 69°f
  • Sea Pressure 1009mb
  • 8447387 - Borden Flats Light At Fall River, Ma
  • 8447387 - Borden Flats Light At Fall River, Ma

More Historic Weather Station data

Upgrade to MSW Pro to gain access to the past 30 days of data for over 8000 Wavebouys and Weather Stations around the globe.

Join Pro

Comparision Forecast

View Surf forecast
   
Sex 05/22 1:30 16 20 mph 1009mb 69f
1:24 22 28 mph 1008.9mb 69f
1:18 16 23 mph 1009mb 69f
1:12 14 21 mph 1009.1mb 68f
1:06 15 20 mph 1009.1mb 68f
1:00 15 23 mph 1009.1mb 70f
12:54 16 25 mph 1009.1mb 68f
12:48 18 24 mph 1009.1mb 68f
12:42 8 13 mph 1009.2mb 67f
12:36 15 21 mph 1009.2mb 67f
12:30 11 15 mph 1009.3mb 68f
12:24 17 22 mph 1009.3mb 68f
12:18 13 15 mph 1009.4mb 67f
12:12 14 16 mph 1009.5mb 67f
12:06 13 23 mph 1009.5mb 67f
12:00 10 15 mph 1009.5mb 68f
11:54 10 11 mph 1009.6mb 67f
11:48 9 15 mph 1009.7mb 67f
11:42 16 20 mph 1009.7mb 67f
11:36 21 25 mph 1009.6mb 66f
11:30 11 17 mph 1009.7mb 66f
11:24 13 17 mph 1009.7mb 65f
11:18 14 20 mph 1009.8mb 65f
11:12 13 18 mph 1009.7mb 65f
11:06 9 14 mph 1009.7mb 63f
11:00 10 13 mph 1009.7mb 61f
10:54 9 13 mph 1009.8mb 61f
10:48 6 9 mph 1009.8mb 61f
10:42 5 8 mph 1009.7mb 61f
10:36 8 10 mph 1009.7mb 61f
10:30 5 6 mph 1009.7mb 60f
10:24 5 6 mph 1009.7mb 60f
10:18 2 3 mph 1009.6mb 61f
10:12 2 3 mph 1009.7mb 60f
10:06 3
mph
1009.7mb 60f
10:00 2 5 mph 1009.7mb 59f
9:54 1 2 mph 1009.7mb 58f
9:48 2 3 mph 1009.7mb 58f
9:42 2 3 mph 1009.7mb 58f
9:36 3 5 mph 1009.8mb 57f
9:30 6 7 mph 1009.8mb 56f
9:24 3 6 mph 1009.7mb 56f
9:18 5 7 mph 1009.8mb 55f
9:12 5 6 mph 1009.7mb 55f
9:06 3 6 mph 1009.8mb 55f
9:00 3 5 mph 1009.9mb 55f
8:54 5 6 mph 1009.9mb 55f
8:48 3 6 mph 1009.9mb 55f
8:42 3 5 mph 1009.9mb 55f
8:36 5 6 mph 1010mb 54f
8:30 3 6 mph 1010mb 54f
8:24 2 3 mph 1010mb 54f
8:18 3 6 mph 1010mb 54f
8:12 5 6 mph 1010mb 54f
8:06 5 6 mph 1010mb 54f
8:00 5 6 mph 1010mb 53f
7:54 5 6 mph 1010mb 53f
7:48 6 7 mph 1009.8mb 53f
7:42 6 7 mph 1009.9mb 53f
7:36 8 9 mph 1009.9mb 53f
7:30 7 8 mph 1009.9mb 53f
7:24 6 7 mph 1009.9mb 53f
7:18 6 8 mph 1009.9mb 53f
7:12 6 7 mph 1009.9mb 53f
7:06 7 8 mph 1009.9mb 53f
7:00 6 8 mph 1009.9mb 53f
6:54 7 8 mph 1010mb 53f
6:48 8 10 mph 1009.9mb 53f
6:42 8 10 mph 1009.9mb 53f
6:36 7 8 mph 1009.7mb 53f
6:30 7 8 mph 1009.8mb 53f
6:24 7 9 mph 1009.7mb 52f
6:18 8 10 mph 1009.7mb 53f
6:12 8 11 mph 1009.6mb 52f
6:06 10 11 mph 1009.8mb 53f
6:00 8 10 mph 1009.7mb 52f
5:54 7 9 mph 1009.5mb 52f
5:48 8 9 mph 1009.4mb 52f
5:42 10 13 mph 1009.9mb 53f
5:36 10 13 mph 1009.9mb 52f
5:30 9 13 mph 1009.7mb 52f
5:24 8 10 mph 1009.7mb 52f
5:18 11 13 mph 1009.8mb 52f
5:12 9 11 mph 1009.7mb 52f
5:06 9 11 mph 1010mb 52f
5:00 9 11 mph 1010.1mb 52f
4:54 7 9 mph 1009.8mb 52f
4:48 7 9 mph 1009.9mb 52f
4:42 7 9 mph 1010mb 52f
4:36 7 9 mph 1010mb 52f
4:30 8 9 mph 1009.9mb 52f
4:24 7 9 mph 1009.8mb 52f
4:18 7 9 mph 1009.8mb 52f
4:12 6 7 mph 1009.8mb 52f
4:06 6 7 mph 1009.7mb 52f
4:00 8 11 mph 1010mb 52f
3:54 7 10 mph 1010mb 52f
3:48 8 10 mph 1009.9mb 51f
3:42 9 11 mph 1010.2mb 52f
3:36 10 14 mph 1010.2mb 52f
3:30 9 14 mph 1010.3mb 52f
3:24 9 13 mph 1010.5mb 52f
3:18 10 13 mph 1010.3mb 52f
3:12 9 11 mph 1010.4mb 52f
3:06 9 10 mph 1010.2mb 52f
3:00 7 9 mph 1010.1mb -
2:54 9 11 mph 1010.2mb -
2:48 8 10 mph 1010.4mb 52f
2:42 9 10 mph 1010.3mb 52f
2:36 11 15 mph 1010.4mb 52f
2:30 9 10 mph 1010.4mb 52f
2:24 8 9 mph 1010.3mb 52f
2:18 8 11 mph 1010.4mb 52f
2:12 8 10 mph 1010.4mb 52f
2:06 9 13 mph 1010.6mb 52f
2:00  -  mph 1010.6mb 52f
1:54  -  mph 1010.5mb 52f
1:48 11 14 mph 1010.5mb 52f
1:42 11 13 mph 1010.6mb 52f
1:36 10 13 mph 1010.8mb 53f
1:30 11 14 mph 1010.9mb 53f
1:24 13 15 mph 1011mb 53f
1:18 10 13 mph 1010.9mb 53f
1:12 11 14 mph 1011mb 53f
1:06 11 13 mph 1011.1mb 53f
1:00 11 14 mph 1011.2mb 53f
12:54 11 14 mph 1011.2mb 53f
12:48 11 14 mph 1011.2mb 53f
12:42 13 14 mph 1011mb 53f
12:36 10 13 mph 1010.8mb 53f
12:30 9 13 mph 1010.8mb 53f
12:24 11 14 mph 1011.1mb 54f
12:18 10 13 mph 1011.2mb 54f
12:12 8 10 mph 1011.3mb 54f
12:06 8 11 mph 1011.4mb 54f
12:00 7 9 mph 1011.5mb 54f
Qui 05/21 11:54 7 8 mph 1011.7mb 54f
11:48 6 8 mph 1011.8mb 54f
11:42 5 7 mph 1011.8mb 54f
11:36 6 7 mph 1012mb 54f
11:24 7 9 mph 1012.3mb 54f
11:18 6 8 mph 1012.3mb 54f
11:12 8 11 mph 1012.3mb 54f
11:06 9 11 mph 1012.4mb 54f
11:00 11 15 mph 1012.4mb 55f
10:54 13 15 mph 1012.3mb 55f
10:48 15 17 mph 1012.5mb 55f
10:42 16 17 mph 1012.6mb 55f
10:36 14 17 mph 1012.7mb 55f
10:30 16 20 mph 1012.7mb 55f
10:24 17 21 mph 1012.7mb 55f
10:18 20 22 mph 1013mb 55f
10:12 18 22 mph 1013.2mb 55f
10:06 20 22 mph 1013.1mb 55f
10:00 21 23 mph 1013mb 55f
9:54 22 25 mph 1013.1mb 55f
9:48 23 26 mph 1013.1mb 55f
9:42 22 23 mph 1013mb 55f
9:36 23 25 mph 1013mb 55f
9:30 23 26 mph 1012.9mb 55f
9:24 23 26 mph 1012.8mb 55f
9:18 21 24 mph 1012.9mb 55f
9:12 22 25 mph 1012.9mb 55f
9:06 20 24 mph 1012.8mb 55f
9:00 17 23 mph 1012.7mb 55f
8:54 17 21 mph 1012.6mb 55f
8:48 15 22 mph 1012.6mb 55f
8:42 14 20 mph 1012.6mb 55f
8:36 15 21 mph 1012.7mb 55f
8:30 11 17 mph 1012.5mb 55f
8:24 14 20 mph 1012.5mb 55f
8:18 14 18 mph 1012.4mb 55f
8:12 16 24 mph 1012.2mb 55f
8:06 17 24 mph 1012.4mb 55f
8:00 15 20 mph 1012.4mb 56f
7:54 18 24 mph 1012.1mb 56f
7:48 17 23 mph 1012.1mb 56f
7:42 18 24 mph 1012.2mb 56f
7:36 18 24 mph 1012.1mb 56f
7:30 20 26 mph 1012mb 56f
7:24 18 24 mph 1012.1mb 57f
7:18 21 26 mph 1012mb 57f
7:12 22 28 mph 1012mb 57f
7:06 20 26 mph 1011.9mb 57f
7:00 20 24 mph 1011.9mb 58f
6:54 21 24 mph 1011.9mb 58f
6:48 21 26 mph 1011.9mb 58f
6:42 18 23 mph 1011.8mb 58f
6:36 18 23 mph 1011.8mb 58f
6:30 22 28 mph 1011.6mb 58f
6:24 25 30 mph 1011.5mb 58f
6:18 25 31 mph 1011.5mb 58f
6:12 21 26 mph 1011.7mb 58f
6:06 22 26 mph 1011.8mb 58f
6:00 21 25 mph 1011.8mb 58f
5:54 18 24 mph 1011.8mb 59f
5:48 21 24 mph 1011.8mb 58f
5:42 23 28 mph 1011.7mb 58f
5:36 20 26 mph 1011.9mb 59f
5:30 21 26 mph 1011.9mb 59f
5:24 21 26 mph 1011.9mb 59f
5:18 23 28 mph 1011.9mb 59f
5:12 21 26 mph 1012mb 59f
5:06 22 29 mph 1012.1mb 59f
5:00 22 25 mph 1012.1mb 59f
4:54 22 28 mph 1012.1mb 59f
4:48 23 28 mph 1012.1mb 59f
4:42 24 29 mph 1012mb 59f
4:36 20 25 mph 1012.3mb 60f
4:30 22 28 mph 1012.3mb 59f
4:24 20 25 mph 1012.4mb 59f
4:18 18 24 mph 1012.5mb 59f
4:12 17 24 mph 1012.5mb 59f
4:06 18 24 mph 1012.4mb 59f
4:00 18 25 mph 1012.3mb 59f
3:54 20 25 mph 1012.5mb 60f
3:48 16 24 mph 1012.6mb 60f
3:42 20 28 mph 1012.6mb 59f
3:36 21 25 mph 1012.5mb 59f
3:30 18 24 mph 1012.6mb 59f
3:24 22 25 mph 1012.6mb 59f
3:18 18 26 mph 1012.6mb 60f
3:12 20 24 mph 1012.6mb 60f
3:06 22 26 mph 1012.7mb 60f
3:00 21 26 mph 1012.8mb 60f
2:54 18 23 mph 1012.8mb 60f
2:48 20 25 mph 1012.8mb 60f
2:42 17 23 mph 1012.8mb 60f
2:36 16 21 mph 1013mb 60f
2:30 21 24 mph 1012.9mb 60f
2:24 16 22 mph 1013mb 61f
2:18 18 25 mph 1013.1mb 61f
2:12 20 25 mph 1013.2mb 60f
2:06 21 24 mph 1013.2mb 60f
2:00 17 23 mph 1013.3mb 60f
1:54 17 25 mph 1013.3mb 60f
1:48 20 26 mph 1013.3mb 60f
1:42 18 25 mph 1013.3mb 60f
1:36 16 22 mph 1013.5mb 60f
1:30 18 24 mph 1013.6mb 60f
1:24 17 22 mph 1013.6mb 60f
1:18 18 22 mph 1013.6mb 60f
1:12 16 21 mph 1013.7mb 60f
1:06 18 23 mph 1013.7mb 60f
1:00 22 25 mph 1013.7mb 59f
12:54 15 20 mph 1013.8mb 60f
12:48 15 20 mph 1013.7mb 60f
12:42 16 22 mph 1013.8mb 60f
12:36 13 16 mph 1014mb 60f
12:30 15 18 mph 1014mb 60f
12:24 16 18 mph 1013.9mb 60f
12:18 15 20 mph 1014mb 60f
12:12 17 22 mph 1014mb 60f
12:06 14 18 mph 1014.1mb 60f
12:00 14 18 mph 1014mb 60f
11:54 14 17 mph 1014mb 60f
11:48 13 18 mph 1014mb 60f
11:42 13 16 mph 1014.1mb 59f
11:36 13 14 mph 1014.2mb 59f
11:30 10 13 mph 1014.2mb 59f
11:24 9 11 mph 1014.3mb 59f
11:18 8 10 mph 1014.4mb 59f
11:12 7 8 mph 1014.3mb 59f
11:06 7 9 mph 1014.3mb 59f
11:00 7 8 mph 1014.4mb 59f
10:54 7 8 mph 1014.6mb 58f
10:48 7 9 mph 1014.6mb 58f
10:42 8 9 mph 1014.8mb 58f
10:36 8 9 mph 1014.7mb 58f
10:30 6 7 mph 1014.7mb 57f
10:24 3 5 mph 1014.5mb 57f
10:18 2 3 mph 1014.7mb 56f
10:12  -  1 mph 1014.6mb 56f
10:06  -  2 mph 1014.9mb 55f
10:00 2
mph
1015mb 55f
9:54 3 5 mph 1015.3mb 55f
9:48 3 5 mph 1015.4mb 54f
9:42 6 7 mph 1015.6mb 54f
9:36 5 6 mph 1015.4mb 54f
9:24 3 5 mph 1015.2mb 53f
9:18 3 5 mph 1015.1mb 53f
9:12 6 7 mph 1015.5mb 53f
9:06 5 6 mph 1015.5mb 53f
9:00 3 5 mph 1015.4mb 53f
8:54 3 5 mph 1015.4mb 53f
8:48 6 7 mph 1015.5mb 52f
8:42 6
mph
1015.4mb 52f
8:36 5 6 mph 1015.4mb 52f
8:30 3 5 mph 1015.4mb 52f
8:24 5
mph
1015.4mb 52f
8:18 3 6 mph 1015.3mb 52f
8:12 3 5 mph 1015.1mb 51f
8:06 3 6 mph 1015mb 51f
8:00 5 6 mph 1015.1mb 51f
7:54 3 6 mph 1015.1mb 51f
7:48 3 5 mph 1015mb 51f
7:42 5 7 mph 1015.1mb 51f
7:36 8 10 mph 1015.1mb 51f
7:30 6 9 mph 1015mb 51f
7:24 5 6 mph 1014.9mb 51f
7:18 7
mph
1014.9mb 50f
7:12 7 8 mph 1014.6mb 51f
7:06 6 7 mph 1014.5mb 50f
7:00 5 7 mph 1014.5mb 50f
6:54 5 7 mph 1014.6mb 51f
6:48 7 8 mph 1014.6mb 50f
6:42 6 7 mph 1014.5mb 50f
6:36 7 10 mph 1014.5mb 50f
6:30 6 8 mph 1014.6mb 50f
6:24 7 8 mph 1014.5mb 50f
6:18 6 8 mph 1014.5mb 50f
6:12 6 7 mph 1014.3mb 50f
6:06 6 7 mph 1014.4mb 50f
6:00 7 9 mph 1014.4mb 50f
5:54 7 8 mph 1014.4mb 50f
5:48 8 10 mph 1014.3mb 50f
5:42 7 9 mph 1014.4mb 51f
5:36 8 10 mph 1014.2mb 51f
5:30 8 10 mph 1014.2mb 51f
5:24 8 9 mph 1014.1mb 51f
5:18 8 9 mph 1014mb 51f
5:12 9 11 mph 1014mb 51f
5:06 9 11 mph 1014mb 51f
5:00 10 13 mph 1014mb 51f
4:54 10 13 mph 1014.1mb 51f
4:48 9 10 mph 1013.9mb 51f
4:42 8 10 mph 1013.9mb 51f
4:36 8 10 mph 1014mb 51f
4:30 8 9 mph 1013.8mb 52f
4:24 8 10 mph 1013.7mb 52f
4:18 7 8 mph 1013.8mb 51f
4:12 7 9 mph 1013.7mb 51f
4:06 8 9 mph 1013.8mb 51f
4:00 8 9 mph 1013.8mb 51f
3:54 8 9 mph 1013.7mb 51f
3:48 8 9 mph 1013.7mb 51f
3:42 6 8 mph 1013.9mb 51f
3:36 7 9 mph 1013.7mb 51f
3:30 6 8 mph 1013.9mb 52f
3:24 5 8 mph 1014mb 52f
3:18 8 10 mph 1013.7mb 52f
3:12 8 11 mph 1013.7mb 52f
3:06 7 9 mph 1013.8mb 52f
3:00 8 9 mph 1013.8mb 52f
2:54 8 10 mph 1013.8mb 52f
2:48  -  mph 1013.8mb -
2:42  -  mph 1013.7mb -
2:36  -  mph 1013.7mb -
2:30 8 10 mph 1013.6mb 52f
2:24 9 11 mph 1013.6mb 52f
2:18 7 10 mph 1013.5mb 52f
2:12 7 9 mph 1013.4mb 52f
2:06 8 11 mph 1013.4mb 52f
2:00 6 8 mph 1013.6mb 52f
1:54 8 10 mph 1013.6mb 53f
1:48 7 9 mph 1013.5mb 53f
1:42 8 10 mph 1013.5mb 53f
1:36 9 11 mph 1013.4mb 53f
1:30 9 11 mph 1013.3mb 53f
1:24 8 10 mph 1013.5mb 53f
1:18 7 10 mph 1013.4mb 53f
1:12 8 10 mph 1013.5mb 53f
1:00 7 8 mph 1013.5mb 53f
12:54 9 11 mph 1013.2mb 53f
12:48 8 10 mph 1013.3mb 53f
12:42 9 11 mph 1013.3mb 53f
12:36 9 11 mph 1013.3mb 54f
12:30 11 13 mph 1013.3mb 54f
12:24 8 9 mph 1013.4mb 54f
12:18 9 10 mph 1013.5mb 54f
12:12 8 9 mph 1013.4mb 55f
12:06 6 8 mph 1013.4mb 55f
12:00 6 9 mph 1013.4mb 55f
Qua 05/20 11:54 8 11 mph 1013.1mb 54f
11:48 9 11 mph 1013mb 55f
11:42 7 9 mph 1013.1mb 55f
11:36 7 9 mph 1013.1mb 55f
11:30 7 9 mph 1013.1mb 55f
11:24 7 9 mph 1013.2mb 55f
11:18 6
mph
1013.3mb 55f
11:12 3
mph
1013.2mb 55f
11:06 1 3 mph 1013mb 55f
11:00 3 5 mph 1012.9mb 55f
10:54 5
mph
1012.9mb 55f
10:48 3 5 mph 1012.8mb 55f
10:42 3 5 mph 1012.9mb 55f
10:36 3 6 mph 1012.9mb 55f
10:30 5 7 mph 1012.8mb 55f
10:24 6 7 mph 1012.9mb 56f
10:18 3 6 mph 1012.9mb 56f
10:12 2 3 mph 1013.1mb 56f
10:06 3 6 mph 1013mb 56f
10:00 5 7 mph 1012.8mb 56f
9:54 5 6 mph 1012.8mb 56f
9:48 5 7 mph 1012.8mb 56f
9:42 5 8 mph 1012.8mb 56f
9:36 7 10 mph 1012.7mb 56f
9:30 7 10 mph 1012.7mb 57f
9:24 10 14 mph 1012.6mb 57f
9:18 13 15 mph 1012.4mb 57f
9:12 10 14 mph 1012.4mb 57f
9:06 10 13 mph 1012.2mb 57f
9:00 10 14 mph 1011.9mb 57f
8:54 13 17 mph 1011.7mb 57f
8:48 10 13 mph 1011.7mb 57f
8:42 10 13 mph 1011.7mb 57f
8:36 9 13 mph 1011.5mb 57f
8:30 9 10 mph 1011.4mb 57f
8:24 11 14 mph 1011.3mb 57f
8:18 11 15 mph 1011.3mb 58f
8:12 11 16 mph 1011.1mb 58f
8:06 10 13 mph 1011mb 58f
8:00 14 17 mph 1010.9mb 58f
7:54 14 18 mph 1010.7mb 58f
7:48 14 16 mph 1010.7mb 58f
7:42 14 18 mph 1010.5mb 58f
7:36 13 16 mph 1010.6mb 59f
7:30 15 20 mph 1010.5mb 59f
7:24 16 21 mph 1010.4mb 59f
7:18 17 23 mph 1010.4mb 59f
7:12 15 25 mph 1010.2mb 59f
7:06 15 18 mph 1010.3mb 60f
7:00 16 23 mph 1010.2mb 60f
6:54 20 25 mph 1010.1mb 60f
6:48 18 24 mph 1010.2mb 60f
6:42 17 22 mph 1010.1mb 60f
6:36 18 23 mph 1009.9mb 60f
6:30 20 29 mph 1009.9mb 60f
6:24 21 26 mph 1010mb 60f
6:18 22 28 mph 1009.7mb 60f
6:12 18 24 mph 1009.6mb 61f
6:06 14 17 mph 1009.7mb 61f
6:00 18 22 mph 1009.7mb 61f
5:54 25 31 mph 1009.6mb 61f
5:48 18 25 mph 1009.6mb 62f
5:42 18 23 mph 1009.5mb 62f
5:36 21 29 mph 1009.5mb 61f
5:30 21 24 mph 1009.3mb 62f
5:24 18 24 mph 1009.1mb 62f
5:18 20 28 mph 1009mb 62f
5:12 21 30 mph 1009.1mb 62f
5:06 20 25 mph 1009mb 62f
5:00 20 24 mph 1008.9mb 62f
4:54 21 26 mph 1008.8mb 62f
4:48 21 28 mph 1008.6mb 62f
4:42 18 22 mph 1008.6mb 63f
4:36 23 29 mph 1008.4mb 63f
4:30 20 25 mph 1008.4mb 63f
4:24 23 29 mph 1008.3mb 63f
4:18 21 25 mph 1008.1mb 64f
4:12 21 28 mph 1008mb 64f
4:06 22 29 mph 1007.8mb 64f
4:00 25 32 mph 1007.4mb 62f
3:54 21 26 mph 1007.4mb 64f
3:48 21 26 mph 1007.4mb 64f
3:42 23 28 mph 1007.3mb 64f
3:36 20 26 mph 1007.3mb 64f
3:30 21 28 mph 1007.3mb 64f
3:24 23 26 mph 1007.2mb 64f
3:18 20 25 mph 1007.2mb 65f
3:12 21 29 mph 1007.1mb 65f
3:06 21 29 mph 1007mb 65f
3:00 20 26 mph 1007.1mb 65f
2:54 18 24 mph 1007mb 64f
2:48 14 21 mph 1007.1mb 63f
2:42 17 24 mph 1007mb 63f
2:36 18 23 mph 1007mb 62f
2:30 20 25 mph 1007mb 62f
2:24 17 20 mph 1007.1mb 63f
2:18 20 23 mph 1007.2mb 63f
2:12 17 22 mph 1007.3mb 63f
2:06 17 23 mph 1007.2mb 64f
2:00 16 22 mph 1007.3mb 63f
1:54 18 22 mph 1007.2mb 63f
1:48 21 26 mph 1007.1mb 62f
1:42 23 29 mph 1007mb 62f
1:36 16 21 mph 1007mb 62f
1:30 17 21 mph 1007.1mb 61f
1:24 20 29 mph 1007.2mb 62f
1:18 18 22 mph 1007.3mb 62f
1:12 24 30 mph 1007.1mb 62f
1:06 18 25 mph 1007.1mb 62f
1:00 20 26 mph 1007.1mb 63f
12:54 15 22 mph 1007.2mb 62f
12:48 17 22 mph 1007.1mb 62f
12:42 22 24 mph 1007mb 60f
12:36 20 26 mph 1007.1mb 60f
12:30 13 17 mph 1007.2mb 61f
12:24 20 25 mph 1007.2mb 61f
12:18 14 17 mph 1007.2mb 60f
12:12 17 23 mph 1007.3mb 60f
12:06 18 22 mph 1007.2mb 60f
12:00 15 18 mph 1007.4mb 60f
11:54 17 20 mph 1007.4mb 60f
11:48 15 21 mph 1007.3mb 60f
11:42 18 26 mph 1007.3mb 60f
11:36 17 24 mph 1007.3mb 60f
11:30 16 20 mph 1007.3mb 59f
11:24 17 22 mph 1007.3mb 59f
11:18 15 21 mph 1007.4mb 60f
11:12 14 20 mph 1007.4mb 60f
11:06 15 18 mph 1007.6mb 59f
11:00 18 24 mph 1007.5mb 59f
10:54 21 25 mph 1007.5mb 59f
10:48 15 20 mph 1007.8mb 59f
10:42 18 22 mph 1007.9mb 59f
10:36 16 20 mph 1008mb 59f
10:30 21 23 mph 1008mb 59f
10:24 22 24 mph 1007.9mb 59f
10:18 16 20 mph 1008mb 59f
10:12 16 22 mph 1008.1mb 60f
10:06 16 22 mph 1008.1mb 59f
10:00 20 23 mph 1008.1mb 59f
9:54 16 20 mph 1008mb 59f
9:48 20 23 mph 1008mb 59f
9:42 18 22 mph 1008mb 59f
9:36 14 17 mph 1007.9mb 59f
9:30 17 20 mph 1008mb 59f
9:24 14 18 mph 1007.9mb 59f
9:18 14 16 mph 1007.8mb 59f
9:12 18 22 mph 1007.8mb 58f
9:06 14 20 mph 1007.8mb 58f
9:00 11 15 mph 1007.8mb 58f
8:54 14 17 mph 1007.9mb 58f
8:48 11 16 mph 1007.9mb 58f
8:42 11 16 mph 1008mb 58f
8:36 14 16 mph 1007.9mb 58f
8:30 9 11 mph 1008mb 58f
8:24 9 13 mph 1008.1mb 58f
8:18 7 10 mph 1008mb 58f
8:12 8 11 mph 1008.2mb 58f
8:06 10 14 mph 1008.1mb 58f
8:00 13 16 mph 1008.2mb 58f
7:54 9 13 mph 1008.1mb 58f
7:48 8 10 mph 1008.3mb 58f
7:42 9 11 mph 1008.2mb 57f
7:36 7 13 mph 1008.1mb 57f
7:30 7 11 mph 1008.1mb 58f
7:24 8 10 mph 1008mb 58f
7:18 8 11 mph 1007.8mb 57f
7:12 5 8 mph 1007.9mb 57f
7:06 5 6 mph 1007.9mb 57f
7:00 6 7 mph 1007.8mb 57f
6:54 8 9 mph 1007.8mb 57f
6:48 7 9 mph 1007.8mb 57f
6:42 7 8 mph 1007.8mb 57f
6:36 7 10 mph 1007.7mb 57f
6:30 7 10 mph 1007.8mb 56f
6:24 7 9 mph 1007.8mb 56f
6:18 7 8 mph 1007.8mb 56f
6:12 7 9 mph 1007.6mb 56f
6:06 9 10 mph 1007.7mb 56f
6:00 10 13 mph 1007.6mb 56f
5:54 8 11 mph 1007.6mb 57f
5:48 8 11 mph 1007.6mb 57f
5:42 8 13 mph 1007.5mb 57f
5:36 8 11 mph 1007.4mb 57f
5:30 9 10 mph 1007.4mb 57f
5:24 8 10 mph 1007.4mb 57f
5:18 10 15 mph 1007.2mb 57f
5:12 9 14 mph 1007.2mb 58f
5:06 10 13 mph 1007.2mb 58f
5:00 10 14 mph 1007mb 58f
4:54 10 13 mph 1006.8mb 58f
4:48 11 14 mph 1006.7mb 58f
4:42 10 14 mph 1006.7mb 58f
4:36 10 13 mph 1006.7mb 58f
4:30 10 15 mph 1006.7mb 59f
4:24 9 15 mph 1006.6mb 59f
4:18 9 15 mph 1006.6mb 59f
4:12 8 11 mph 1006.7mb 60f
4:06 9 13 mph 1006.8mb 60f
4:00 13 15 mph 1006.8mb 60f
3:54 14 18 mph 1006.8mb 60f
3:48 14 20 mph 1006.8mb 60f
3:42 15 18 mph 1006.8mb 60f
3:36 13 17 mph 1006.7mb 61f
3:30 13 16 mph 1006.5mb 61f
3:24 10 16 mph 1006.4mb 62f
3:18 8 9 mph 1006.4mb 62f
3:12 7 8 mph 1006.4mb 62f
3:06 9 11 mph 1006.4mb 62f
3:00 10 13 mph 1006.5mb 62f
2:54 11 14 mph 1006.6mb 62f
2:48 13 15 mph 1006.4mb -
2:42 10 16 mph 1006.3mb -
2:36 8 10 mph 1006.4mb -
2:30 9 14 mph 1006.4mb 63f
2:24 10 14 mph 1006.3mb 63f
2:18 14 16 mph 1006.3mb 63f
2:12 11 15 mph 1006.3mb 61f
2:06 10 11 mph 1006.2mb 61f
2:00 9 10 mph 1006.2mb 61f
1:54 8 9 mph 1006.2mb 61f
1:48 8 9 mph 1006.2mb 61f
1:42 10 11 mph 1006.2mb 62f
1:36 9 11 mph 1006.3mb 61f
1:30 9 10 mph 1006.3mb 61f
1:24 10 11 mph 1006.4mb 61f
1:18 11 14 mph 1006.5mb 61f
1:12 11 13 mph 1006.6mb 60f
1:06 11 13 mph 1006.6mb 61f
1:00 13 15 mph 1006.8mb 61f
12:54 11 14 mph 1006.8mb 61f
12:48 14 17 mph 1006.8mb 61f
12:42 16 20 mph 1006.5mb 60f
12:36 16 18 mph 1005.9mb 60f
12:30 15 17 mph 1005.7mb 61f
12:24 7 8 mph 1005.4mb 61f
12:18 11 17 mph 1005.8mb 61f
12:12 17 24 mph 1003.6mb 61f
12:06 13 17 mph 1005.8mb 61f
12:00 8 10 mph 1007.3mb 61f
Ter 05/19 11:54 8 9 mph 1007.6mb 60f
11:48 7 9 mph 1007.6mb 60f
11:42 7 8 mph 1007.8mb 60f
11:36 7 8 mph 1007.8mb 60f
11:30 8 11 mph 1008.1mb 60f
11:24 11 13 mph 1007.9mb 60f
11:18 10 11 mph 1008mb 60f
11:12 11 13 mph 1007.8mb 61f
11:06 10 13 mph 1007.9mb 61f
11:00 8 11 mph 1007.5mb 61f
10:54 6 9 mph 1007.4mb 61f
10:48 6 8 mph 1007.7mb 60f
10:42 6 8 mph 1007.8mb 60f
10:36 7 8 mph 1007.8mb 60f
10:30 6 7 mph 1008mb 59f
10:24 8 9 mph 1008.1mb 59f
10:18 9
mph
1008.3mb 59f
10:12 7 8 mph 1008.4mb 59f
10:06 8 9 mph 1008.5mb 60f
10:00 7 8 mph 1008.3mb 60f
9:54 6
mph
1008mb 60f
9:48 5 6 mph 1008.1mb 61f
9:42 7 9 mph 1008mb 61f
9:36 7 9 mph 1007.9mb 61f
9:30 6 8 mph 1008.1mb 61f
9:24 6 8 mph 1008.1mb 61f
9:18 7 8 mph 1008.1mb 61f
9:12 7 8 mph 1008.1mb 61f
9:06 6 7 mph 1008.1mb 61f
9:00 6 7 mph 1008.1mb 61f
8:54 6 7 mph 1008mb 61f
8:48 8 9 mph 1007.9mb 61f
8:42 7 9 mph 1008mb 61f
8:36 6 7 mph 1008mb 61f
8:30 7 8 mph 1008mb 61f
8:24 7 8 mph 1008mb 61f
8:18 6 7 mph 1008mb 61f
8:12 3 6 mph 1007.9mb 61f
8:06 5 6 mph 1008mb 61f
8:00 3 6 mph 1008mb 61f
7:54 6 8 mph 1008mb 61f
7:48 5 6 mph 1008.1mb 61f
7:42 7 8 mph 1008.1mb 61f
7:36 7 8 mph 1008.2mb 61f
7:30 7 9 mph 1008.2mb 61f
7:24 6 8 mph 1008.3mb 61f
7:18 6 9 mph 1008.2mb 61f
7:12 5 9 mph 1008.3mb 61f
7:06 7 8 mph 1008.3mb 61f
7:00 7 11 mph 1008.3mb 61f
6:54 7 8 mph 1008.4mb 61f
6:48 7 9 mph 1008.4mb 61f
6:42 8 10 mph 1008.4mb 61f
6:36 9 11 mph 1008.4mb 62f
6:30 10 13 mph 1008.5mb 62f
6:24 9 11 mph 1008.6mb 62f
6:18 8 10 mph 1008.6mb 62f
6:12 7 8 mph 1008.6mb 62f
6:06 8 13 mph 1008.6mb 62f
6:00 9 10 mph 1008.7mb 62f
5:54 9 11 mph 1008.9mb 62f
5:48 9 11 mph 1009mb 62f
5:42 9 11 mph 1009.1mb 62f
5:36 8 11 mph 1009.1mb 62f
5:30 9 11 mph 1009.2mb 62f
5:24 9 13 mph 1009.3mb 61f
5:18 8 10 mph 1009.5mb 61f
5:12 9 13 mph 1009.6mb 61f
5:06 8 9 mph 1009.7mb 61f
5:00 8 9 mph 1009.8mb 61f
4:54 9 10 mph 1009.9mb 61f
4:48 8 11 mph 1009.9mb 61f
4:42 9 13 mph 1010mb 60f
4:36 9 11 mph 1010mb 61f
4:30 9 13 mph 1010mb 61f
4:24 10 13 mph 1010mb 60f
4:18 13 15 mph 1010mb 60f
4:12 13 14 mph 1010.2mb 60f
4:06 10 14 mph 1010.2mb 60f
4:00 11 13 mph 1010.3mb 60f
3:54 9 11 mph 1010.4mb 60f
3:48 9 11 mph 1010.5mb 60f
3:42 10 14 mph 1010.6mb 60f
3:36 11 15 mph 1010.6mb 60f
3:30 10 14 mph 1010.7mb 60f
3:24 9 11 mph 1010.8mb 60f
3:18 9 11 mph 1010.9mb 60f
3:12 10 13 mph 1011mb 60f
3:06 8 10 mph 1011mb 60f
3:00 9 13 mph 1011.1mb 60f
2:54 9 11 mph 1011.2mb 60f
2:48 9 10 mph 1011.2mb 60f
2:42 10 13 mph 1011.4mb 60f
2:36 8 10 mph 1011.6mb 60f
2:30 8 10 mph 1011.7mb 60f
2:24 8 11 mph 1011.7mb 60f
2:18 8 9 mph 1011.8mb 60f
2:12 8 10 mph 1011.9mb 60f
2:06 7 9 mph 1012mb 59f
2:00 6 8 mph 1012.1mb 59f
1:54 7 9 mph 1012.2mb 59f
1:48 6 8 mph 1012.3mb 59f
1:42 8 11 mph 1012.4mb 59f
1:36 7 9 mph 1012.5mb 58f
1:30 8 11 mph 1012.6mb 58f
1:24 9 11 mph 1012.6mb 58f
1:18 8 10 mph 1012.7mb 58f
1:12 10 11 mph 1012.8mb 57f
1:06 11 13 mph 1012.9mb 57f
1:00 10 11 mph 1013mb 57f
12:54 10 11 mph 1013.1mb 57f
12:48 10 11 mph 1013.1mb 58f
12:42 9 11 mph 1013.2mb 58f
12:36 8 10 mph 1013.2mb 58f
12:30 3 6 mph 1013.2mb 58f
12:24 6 7 mph 1013.2mb 58f
12:18 6 7 mph 1013.3mb 58f
12:12 7 8 mph 1013.3mb 58f
12:06 7 9 mph 1013.4mb 58f
12:00 9 10 mph 1013.4mb 58f
11:54 10 11 mph 1013.4mb 58f
11:48 9 10 mph 1013.5mb 58f
11:42 8 10 mph 1013.6mb 58f
11:36 5 6 mph 1013.6mb 58f
11:30 6 8 mph 1013.6mb 58f
11:24 6 9 mph 1013.7mb 58f
11:18 6 9 mph 1013.8mb 58f
11:12 9 11 mph 1013.8mb 58f
11:06 7 10 mph 1013.8mb 58f
11:00 6 8 mph 1013.8mb 57f
10:54 6 7 mph 1013.9mb 57f
10:48 5 6 mph 1014mb 57f
10:42 6 7 mph 1014mb 58f
10:36 5 8 mph 1014.1mb 57f
10:30 6 9 mph 1014.2mb 57f
10:24 6 8 mph 1014.3mb 57f
10:18 8 10 mph 1014.3mb 57f
10:12 7 9 mph 1014.3mb 57f
10:06 7 9 mph 1014.3mb 57f
10:00 7 8 mph 1014.4mb 57f
9:54 6 9 mph 1014.4mb 57f
9:48 6 8 mph 1014.5mb 56f
9:42 8 10 mph 1014.6mb 56f
9:36 7 9 mph 1014.6mb 56f
9:30 6 7 mph 1014.6mb 56f
9:24 7 9 mph 1014.7mb 55f
9:18 6 8 mph 1014.8mb 55f
9:12 6 8 mph 1014.8mb 55f
9:06 6 8 mph 1014.9mb 55f
9:00 9 10 mph 1014.9mb 55f
8:54 8 9 mph 1015mb 55f
8:48 8 11 mph 1015mb 55f
8:42 6 8 mph 1015mb 55f
8:36 6 7 mph 1015.1mb 55f
8:30 8 9 mph 1015.1mb 54f
8:24 9 10 mph 1015.2mb 54f
8:18 11 14 mph 1015.2mb 54f
8:12 10 13 mph 1015.5mb 54f
8:06 10 13 mph 1015.4mb 54f
8:00 9 10 mph 1015.5mb 54f
7:54 9 10 mph 1015.5mb 54f
7:48 9 10 mph 1015.6mb 54f
7:42 8 9 mph 1015.6mb 54f
7:36 8 9 mph 1015.6mb 54f
7:30 8 10 mph 1015.6mb 54f
7:24 7 8 mph 1015.6mb 54f
7:18 6 7 mph 1015.7mb 53f
7:12 7 8 mph 1015.8mb 53f
7:06 6 7 mph 1015.9mb 53f
7:00 5 6 mph 1015.8mb 53f
6:54 5 6 mph 1015.9mb 53f
6:48 6 7 mph 1015.9mb 53f
6:42 6
mph
1015.9mb 53f
6:36 5 6 mph 1015.9mb 53f
6:30 5 6 mph 1015.9mb 53f
6:24 6 9 mph 1015.9mb 53f
6:18 6 8 mph 1015.9mb 53f
6:12 6 8 mph 1015.9mb 52f
6:06 3 6 mph 1016.1mb 53f
6:00 3 6 mph 1016.2mb 52f
5:54 6 9 mph 1016.4mb 52f
5:48 3 5 mph 1016.5mb 52f
5:42 7 9 mph 1016.5mb 52f
5:36 7 9 mph 1016.3mb 52f
5:30 6 8 mph 1016.2mb 52f
5:24 5 7 mph 1016.1mb 52f
5:18 5 7 mph 1016.2mb 52f
5:12 5 7 mph 1016.2mb 52f
5:06 6 8 mph 1016.2mb 52f
5:00 8 9 mph 1016.3mb 52f
4:54 7 9 mph 1016.4mb 51f
4:48 7 10 mph 1016.5mb 51f
4:42 7 9 mph 1016.7mb 51f
4:36 8 10 mph 1016.9mb 51f
4:30 6 7 mph 1017.1mb 51f
4:24 7 8 mph 1017.1mb 51f
4:18 6 7 mph 1017.3mb 51f
4:12 8 10 mph 1017.3mb 51f
4:06 7 9 mph 1017.4mb 51f
4:00 6 7 mph 1017.6mb 51f
3:54 5 7 mph 1017.6mb 51f
3:48 7 8 mph 1017.6mb 51f
3:42 6
mph
1017.7mb 51f
3:36 6 7 mph 1017.9mb 51f
3:30 7 9 mph 1017.9mb 51f
3:24 8 9 mph 1018mb 51f
3:18 6 7 mph 1018.1mb 51f
3:12 7 8 mph 1018mb 51f
3:06 6 8 mph 1017.9mb 51f
3:00 6 7 mph 1017.9mb 51f
2:54 6 8 mph 1018mb 51f
2:48 6 9 mph 1018.1mb 51f
2:42 5 7 mph 1018.3mb 51f
2:36 6 7 mph 1018.4mb 51f
2:30 7 8 mph 1018.5mb 51f
2:24 6 8 mph 1018.7mb 51f
2:18 7 8 mph - 51f
2:12 6 8 mph - 51f
2:06 6 7 mph - 51f
2:00 6 8 mph - 51f
1:54 5 6 mph - 51f
1:48 6 8 mph 1018.9mb 51f
1:42 3 7 mph 1018.9mb 51f
1:36 7 9 mph 1019mb 51f
1:30 6 7 mph 1019mb 51f
1:24 9 10 mph 1018.9mb 51f
1:18 6 8 mph 1019mb 51f
1:12 6 8 mph 1019.1mb 51f
1:06 6 7 mph 1019.2mb 51f
1:00 6 7 mph 1019.2mb 51f
12:54 7 8 mph 1019.1mb 51f
12:48 6 7 mph 1019.2mb 51f
12:42 8 10 mph 1019.3mb 51f
12:36 8 10 mph 1019.2mb 52f
12:30 6 7 mph 1019.4mb 52f
12:24 5 8 mph 1019.5mb 53f
12:18 6 7 mph 1019.6mb 53f
12:12 6 8 mph 1019.7mb 53f
12:06 6 7 mph 1019.8mb 53f
12:00 8 9 mph 1019.9mb 53f
Seg 05/18 11:54 9 10 mph 1020mb 53f
11:48 6 8 mph 1020.1mb 53f
11:42 7 9 mph 1020.2mb 53f
11:36 6 8 mph 1020.1mb 53f
11:30 7 9 mph 1020.1mb 53f
11:24 8 13 mph 1019.9mb 53f
11:18 7 9 mph 1020mb 53f
11:12 8 9 mph 1020.1mb 53f
11:06 6 7 mph 1020.3mb 54f
11:00 6 7 mph 1020.5mb 54f
10:54 7 8 mph 1020.7mb 54f
10:48 6 8 mph 1020.6mb 54f
10:42 7 8 mph 1020.6mb 54f
10:36 6 8 mph 1020.6mb 54f
10:30 7 8 mph 1020.6mb 54f
10:24 6 7 mph 1020.8mb 54f
10:18 7 8 mph 1020.8mb 54f
10:12 7 8 mph 1020.9mb 54f
10:06 6
mph
1020.9mb 55f
10:00 7 8 mph 1021mb 55f
9:54 6 7 mph 1021.1mb 55f
9:48 5 6 mph 1021.1mb 55f
9:42 7 8 mph 1021.1mb 55f
9:36 8 9 mph 1021.1mb 55f
9:30 7 9 mph 1021.1mb 55f
9:24 8 10 mph 1021mb 56f
9:18 8 10 mph 1021.1mb 56f
9:12 7 9 mph 1021.1mb 56f
9:06 7 9 mph 1021.2mb 56f
9:00 8 9 mph 1021.1mb 57f
8:54 8 10 mph 1021.1mb 57f
8:48 7 10 mph 1021mb 57f
8:42 8 9 mph 1020.9mb 58f
8:36 5 7 mph 1020.9mb 58f
8:30 7 8 mph 1020.7mb 58f
8:24 10 11 mph 1020.7mb 59f
8:18 7 9 mph 1020.8mb 59f
8:12 6 9 mph 1020.9mb 60f
8:06 7 8 mph 1021mb 60f
8:00 6 8 mph 1021.1mb 60f
7:54 5 7 mph 1021.1mb 60f
7:48 6 7 mph 1021.3mb 60f
7:42 6 7 mph 1021.3mb 60f
7:36 5 6 mph 1021.2mb 60f
7:30 6 7 mph 1021.2mb 60f
7:24 8 10 mph 1021.1mb 60f
7:18 10 14 mph 1020.9mb 60f
7:12 14 16 mph 1020.9mb 60f
7:06 15 18 mph 1020.8mb 60f
7:00 16 20 mph 1020.6mb 60f
6:54 15 21 mph 1020.6mb 61f
6:48 15 18 mph 1020.5mb 61f
6:42 16 20 mph 1020.5mb 61f
6:36 14 18 mph 1020.5mb 62f
6:30 14 18 mph 1020.5mb 62f
6:24 15 18 mph 1020.5mb 62f
6:18 15 20 mph 1020.6mb 62f